Jacksonville, FL

1:51 PM EST on December 05, 2016 (GMT -0500)
Jacksonville International | | Change Station

Elev 30 ft 30.49 °N, 81.69 °W | Updated 55 minutes ago

Mostly Cloudy
Mostly Cloudy
83 °F
Feels Like 86 °F
N
9
Wind Variable Wind from SW

Today
High -- | Low -- °F
--% Chance of Precip.
Yesterday
High -- | Low -- °F
Precip. -- in
Pressure 29.92 in
Visibility 10.0 miles
Clouds Mostly Cloudy 3100 ft
Mostly Cloudy 20000 ft
Heat Index 86 °F
Dew Point 69 °F
Humidity 63%
Rainfall 0.00 in
Snow Depth Not available.
7:09 AM 5:25 PM
Waxing Crescent, 34% visible
METAR KJAX 051756Z 23008KT 10SM BKN031 BKN200 28/21 A2992 RMK AO2 SLP132 T02830206 10289 20189 58018
Pressure 29.92 in
Visibility 10.0 miles
Clouds Mostly Cloudy 3100 ft
Mostly Cloudy 20000 ft
Heat Index 86 °F
Dew Point 69 °F
Humidity 63%
Rainfall 0.00 in
Snow Depth Not available.
7:09 AM 5:25 PM
Waxing Crescent, 34% visible
METAR KJAX 051756Z 23008KT 10SM BKN031 BKN200 28/21 A2992 RMK AO2 SLP132 T02830206 10289 20189 58018

10-Day Weather Forecast

Almanac

Astronomy

Dec. 05, 2016 Rise Set
Actual Time
Civil Twilight
Nautical Twilight
Astronomical Twilight
Moon
Length of Visible Light
Length of Day
Tomorrow will be .
, % of the Moon is Illuminated

Today's Extremes

State Highs State Lows

Community

WunderPhotos

Upload Photos

1,955,851 photos uploaded!

WunderBlog® & News

Nearby

Air Quality

  Air Quality AQ Index Pollutant
Not available.

Snow Depth

Station Depth Elevation

Earthquake Activity

City Distance Mag. Time & Date
Minimum magnitude displayed is 2.5.

Coastal Water Temperatures

Place Temperature

Stations

Nearby Weather Stations

Station Location Temp. Windchill Dew Point Humidity Wind Precip. Elev Updated Type
                   

Watches & Warnings

There are currently no watches in effect.